Time;durP1;ratioP1;P1;durP2;ratioP2;P2;SDS_P1;SDS_P2;PMS_P1;PMS_P2;Temp;Humidity;BMP_temperature;BMP_pressure;BME280_temperature;BME280_humidity;BME280_pressure;Samples;Min_cycle;Max_cycle;Signal;HPM_P1;HPM_P2
2022/10/04 00:02:00;;;;;;;2.22;1.70;;;;;;;6.68;89.52;97671.38;1675988;83;21050;-78
2022/10/04 00:04:56;;;;;;;2.72;2.00;;;;;;;6.65;89.80;97677.56;1676406;82;20981;-77
2022/10/04 00:07:30;;;;;;;2.33;1.55;;;;;;;6.69;90.46;97683.63;1715089;82;21481;-76
2022/10/04 00:10:23;;;;;;;2.55;1.85;;;;;;;6.70;91.39;97680.98;1687088;83;21010;-77
2022/10/04 00:13:03;;;;;;;2.22;1.77;;;;;;;6.82;91.03;97689.53;1669536;83;21042;-77
2022/10/04 00:15:37;;;;;;;2.87;2.35;;;;;;;6.94;91.84;97686.64;1672758;83;20998;-77
2022/10/04 00:18:15;;;;;;;2.92;2.00;;;;;;;7.09;91.23;97672.73;1669502;83;21006;-77
2022/10/04 00:20:53;;;;;;;3.17;2.25;;;;;;;7.19;91.63;97678.70;1686858;84;21383;-77
2022/10/04 00:23:40;;;;;;;2.70;1.98;;;;;;;7.31;91.52;97686.80;1677836;83;21019;-77
2022/10/04 00:26:30;;;;;;;3.02;2.20;;;;;;;7.36;91.15;97685.78;1697519;83;20952;-77
2022/10/04 00:29:21;;;;;;;3.52;2.22;;;;;;;7.46;90.79;97685.14;1683708;83;22153;-77
2022/10/04 00:32:15;;;;;;;3.17;2.10;;;;;;;7.58;90.69;97681.80;1669430;83;21407;-77
2022/10/04 00:34:49;;;;;;;8.40;2.27;;;;;;;7.68;90.74;97672.78;1690967;84;20997;-77
2022/10/04 00:37:22;;;;;;;2.62;1.85;;;;;;;7.77;90.59;97676.99;1675953;85;21032;-77
2022/10/04 00:40:06;;;;;;;4.75;2.47;;;;;;;7.86;90.45;97678.54;1670701;84;21565;-76
2022/10/04 00:42:51;;;;;;;3.17;2.00;;;;;;;7.92;90.28;97683.22;1665625;85;21082;-77
2022/10/04 00:45:35;;;;;;;2.90;1.50;;;;;;;8.03;89.76;97672.86;1666613;84;21022;-77
2022/10/04 00:48:29;;;;;;;2.85;1.60;;;;;;;8.13;89.46;97676.12;1619619;87;21516;-77
2022/10/04 00:51:18;;;;;;;2.62;1.60;;;;;;;8.22;88.73;97676.36;1669671;85;21002;-76
2022/10/04 00:54:12;;;;;;;3.02;1.85;;;;;;;8.28;89.12;97674.44;1656863;85;21141;-77
2022/10/04 00:56:49;;;;;;;3.30;1.62;;;;;;;8.37;89.03;97668.48;1687382;85;21467;-77
2022/10/04 00:59:34;;;;;;;4.20;1.72;;;;;;;8.39;88.71;97666.69;1661933;85;21016;-77
2022/10/04 01:02:31;;;;;;;2.70;1.85;;;;;;;8.39;88.58;97666.22;1658070;85;21480;-77
2022/10/04 01:05:11;;;;;;;2.10;1.87;;;;;;;8.41;88.80;97678.06;1667722;85;21053;-77
2022/10/04 01:07:47;;;;;;;2.70;1.50;;;;;;;8.39;88.80;97671.97;1633632;86;21001;-77
2022/10/04 01:10:28;;;;;;;2.70;2.08;;;;;;;8.36;88.61;97674.68;1631567;86;21088;-77
2022/10/04 01:13:21;;;;;;;3.80;1.98;;;;;;;8.32;88.88;97673.43;1640505;86;21423;-77
2022/10/04 01:16:14;;;;;;;4.33;1.98;;;;;;;8.30;88.65;97672.61;1679736;83;21021;-78
2022/10/04 01:18:42;;;;;;;3.70;1.80;;;;;;;8.21;88.65;97675.48;1662832;85;20990;-78
2022/10/04 01:21:22;;;;;;;2.60;2.30;;;;;;;8.12;89.03;97680.55;1679533;85;21008;-78
2022/10/04 01:23:59;;;;;;;4.17;2.62;;;;;;;8.05;88.82;97686.42;1697544;83;20994;-78
2022/10/04 01:26:35;;;;;;;2.33;1.70;;;;;;;8.03;89.11;97686.05;1639165;84;21006;-78
2022/10/04 01:29:26;;;;;;;3.17;1.77;;;;;;;8.09;88.41;97687.69;1680553;83;21015;-78
2022/10/04 01:31:59;;;;;;;3.60;2.30;;;;;;;8.18;87.97;97683.50;1684939;85;21019;-78
2022/10/04 01:34:29;;;;;;;2.47;1.92;;;;;;;8.23;88.14;97674.13;1695718;82;21071;-78
2022/10/04 01:36:59;;;;;;;3.40;2.02;;;;;;;8.15;87.94;97675.64;1666215;84;21038;-78
2022/10/04 01:39:27;;;;;;;2.77;1.70;;;;;;;8.06;88.13;97680.23;1680671;83;21000;-78
2022/10/04 01:42:20;;;;;;;4.65;1.80;;;;;;;8.00;88.53;97675.12;1654737;85;21048;-78
2022/10/04 01:45:11;;;;;;;3.85;1.95;;;;;;;8.00;88.40;97680.84;1686437;82;21000;-78
2022/10/04 01:47:42;;;;;;;4.42;2.42;;;;;;;7.99;88.17;97687.91;1638617;85;21024;-77
2022/10/04 01:50:19;;;;;;;5.05;2.30;;;;;;;7.95;88.33;97688.00;1683022;84;21064;-77
2022/10/04 01:53:00;;;;;;;2.20;1.70;;;;;;;7.92;88.46;97692.90;1693952;83;21008;-77
2022/10/04 01:55:40;;;;;;;5.62;2.12;;;;;;;7.89;88.83;97681.12;1714436;83;20994;-77
2022/10/04 01:58:12;;;;;;;3.47;2.15;;;;;;;7.89;88.71;97689.03;1660613;84;20978;-77
2022/10/04 02:00:48;;;;;;;3.83;2.72;;;;;;;7.86;88.63;97687.34;1686799;83;21323;-77
2022/10/04 02:03:28;;;;;;;3.02;2.37;;;;;;;7.86;88.99;97691.73;1719452;82;21049;-77
2022/10/04 02:05:59;;;;;;;3.17;2.25;;;;;;;7.86;89.03;97684.70;1641354;84;21516;-77
2022/10/04 02:08:30;;;;;;;6.05;2.92;;;;;;;7.86;89.13;97686.02;1680789;83;21441;-77
2022/10/04 02:10:59;;;;;;;3.17;2.58;;;;;;;7.86;89.22;97688.66;1680672;85;20992;-77
2022/10/04 02:13:34;;;;;;;4.33;2.52;;;;;;;7.90;89.11;97681.05;1698764;83;21402;-77
2022/10/04 02:16:01;;;;;;;;;;;;;;;7.92;89.16;97690.26;1673486;85;21010;-78
2022/10/04 02:18:30;;;;;;;3.47;2.33;;;;;;;7.93;89.19;97687.59;1627987;87;20404;-77
2022/10/04 02:20:59;;;;;;;3.33;2.30;;;;;;;7.95;89.30;97683.60;1686317;83;20972;-77
2022/10/04 02:23:31;;;;;;;3.75;3.20;;;;;;;7.98;89.38;97680.90;1684531;84;20965;-78
2022/10/04 02:26:08;;;;;;;4.08;2.77;;;;;;;7.99;89.49;97681.31;1688911;83;21036;-78
2022/10/04 02:28:37;;;;;;;4.40;2.55;;;;;;;8.00;89.56;97688.31;1638473;85;21174;-78
2022/10/04 02:33:57;;;;;;;4.83;2.87;;;;;;;7.96;90.06;97699.84;1707013;82;21006;-77
2022/10/04 02:36:28;;;;;;;4.78;2.62;;;;;;;7.86;89.63;97695.25;1684929;83;20987;-78
2022/10/04 02:39:10;;;;;;;5.35;2.65;;;;;;;7.81;89.90;97696.25;1662927;85;21437;-78
2022/10/04 02:42:00;;;;;;;5.62;2.60;;;;;;;7.77;89.76;97691.03;1683236;83;21030;-79
2022/10/04 02:44:38;;;;;;;3.33;2.70;;;;;;;7.73;89.83;97704.34;1670606;85;21065;-79
2022/10/04 02:47:18;;;;;;;3.40;2.60;;;;;;;7.68;89.75;97696.98;1704515;83;20996;-79
2022/10/04 02:50:03;;;;;;;3.95;2.90;;;;;;;7.62;89.97;97701.50;1638692;85;21008;-79
2022/10/04 02:52:46;;;;;;;2.80;2.50;;;;;;;7.63;90.22;97707.63;1637982;84;21428;-77
2022/10/04 02:55:22;;;;;;;4.00;3.00;;;;;;;7.65;90.72;97715.06;1715869;83;21060;-77
2022/10/04 02:57:51;;;;;;;4.05;2.80;;;;;;;7.64;90.29;97712.88;1680220;83;21463;-77
2022/10/04 03:00:26;;;;;;;2.90;2.35;;;;;;;7.64;90.36;97720.78;1638397;85;20988;-77
2022/10/04 03:03:31;;;;;;;2.60;2.20;;;;;;;7.63;90.47;97726.09;1638529;84;21050;-77
2022/10/04 03:06:08;;;;;;;4.03;2.40;;;;;;;7.61;90.86;97719.98;1713889;83;21485;-77
2022/10/04 03:08:46;;;;;;;3.52;2.30;;;;;;;7.63;90.97;97723.02;1669147;85;21428;-77
2022/10/04 03:11:17;;;;;;;3.42;2.30;;;;;;;7.67;91.20;97722.48;1656650;85;21081;-78
2022/10/04 03:13:51;;;;;;;4.08;1.95;;;;;;;7.66;90.90;97722.95;1647809;85;21011;-77
2022/10/04 03:16:19;;;;;;;3.85;2.25;;;;;;;7.68;91.23;97726.84;1669611;84;21392;-77
2022/10/04 03:18:48;;;;;;;2.85;2.00;;;;;;;7.70;91.28;97723.75;1669441;86;21089;-77
2022/10/04 03:21:18;;;;;;;4.00;1.85;;;;;;;7.79;91.25;97723.55;1669203;86;20971;-77
2022/10/04 03:23:49;;;;;;;3.33;1.77;;;;;;;7.86;91.04;97725.59;1681286;85;21044;-77
2022/10/04 03:26:41;;;;;;;2.33;2.12;;;;;;;7.92;90.87;97720.16;1681214;85;21040;-77
2022/10/04 03:29:12;;;;;;;3.70;2.15;;;;;;;7.93;90.50;97732.89;1681390;85;21417;-77
2022/10/04 03:31:43;;;;;;;3.17;2.00;;;;;;;7.90;90.36;97740.89;1681399;85;21402;-77
2022/10/04 03:34:20;;;;;;;4.92;2.15;;;;;;;7.93;90.60;97739.05;1681104;84;21055;-77
2022/10/04 03:36:55;;;;;;;3.30;2.30;;;;;;;7.87;90.21;97732.59;1687293;84;21018;-77
2022/10/04 03:39:36;;;;;;;;;;;;;;;7.76;89.98;97730.63;1671976;86;21057;-77
2022/10/04 03:42:17;;;;;;;3.67;2.12;;;;;;;7.68;90.42;97728.17;1648075;85;20204;-78
2022/10/04 03:44:47;;;;;;;2.60;2.08;;;;;;;7.61;90.25;97725.27;1663812;85;21498;-78
2022/10/04 03:47:21;;;;;;;2.70;2.08;;;;;;;7.53;90.31;97728.92;1673962;85;21013;-78
2022/10/04 03:49:49;;;;;;;3.47;2.75;;;;;;;7.57;90.45;97733.70;1684824;84;21422;-78
2022/10/04 03:52:27;;;;;;;4.60;2.70;;;;;;;7.56;90.32;97728.45;1669405;86;21387;-77
2022/10/04 03:54:58;;;;;;;4.25;2.67;;;;;;;7.50;89.77;97730.77;1666693;86;21424;-78
2022/10/04 03:57:26;;;;;;;5.35;3.08;;;;;;;7.40;89.58;97722.20;1669351;86;21050;-77
2022/10/04 03:59:53;;;;;;;4.70;2.40;;;;;;;7.33;89.73;97725.41;1664767;85;21061;-77
2022/10/04 04:02:37;;;;;;;4.60;2.65;;;;;;;7.29;89.78;97742.19;1693235;84;20980;-78
2022/10/04 04:05:21;;;;;;;3.67;2.60;;;;;;;7.19;89.70;97737.53;1662800;85;21049;-79
2022/10/04 04:08:13;;;;;;;3.33;2.58;;;;;;;7.10;89.89;97745.18;1683596;84;21014;-78
2022/10/04 04:10:47;;;;;;;3.22;2.80;;;;;;;7.03;89.87;97740.94;1664389;83;21436;-76
2022/10/04 04:13:27;;;;;;;5.65;2.72;;;;;;;6.98;90.19;97743.65;1697742;83;21007;-77
2022/10/04 04:15:55;;;;;;;3.42;3.00;;;;;;;6.96;90.10;97739.30;1702130;83;21458;-77
2022/10/04 04:18:29;;;;;;;4.65;2.92;;;;;;;6.90;90.38;97741.63;1679565;83;21408;-77
2022/10/04 04:20:58;;;;;;;4.28;3.10;;;;;;;6.89;90.46;97749.09;1696624;83;21443;-77
2022/10/04 04:23:41;;;;;;;4.78;2.60;;;;;;;6.88;90.48;97749.14;1698205;83;20975;-77
2022/10/04 04:26:28;;;;;;;3.75;2.25;;;;;;;6.89;90.64;97753.05;1698228;83;21015;-77
2022/10/04 04:29:08;;;;;;;5.08;2.70;;;;;;;6.93;90.68;97749.92;1698469;83;20995;-77
2022/10/04 04:32:00;;;;;;;5.20;2.60;;;;;;;6.95;90.58;97745.48;1664447;85;21018;-78
2022/10/04 04:34:31;;;;;;;15.80;7.28;;;;;;;6.99;90.45;97747.16;1674532;83;21059;-78
2022/10/04 04:37:03;;;;;;;5.85;3.30;;;;;;;7.04;90.45;97751.89;1698127;83;20999;-78
2022/10/04 04:39:38;;;;;;;4.08;2.70;;;;;;;7.08;90.32;97740.41;1718396;83;20969;-78
2022/10/04 04:42:14;;;;;;;3.70;2.50;;;;;;;7.19;90.35;97749.39;1702198;82;21083;-78
2022/10/04 04:45:06;;;;;;;3.35;2.70;;;;;;;7.28;90.41;97752.31;1725283;83;20973;-79
2022/10/04 04:47:53;;;;;;;2.70;2.37;;;;;;;7.36;90.03;97759.59;1727352;83;20965;-76
2022/10/04 04:50:29;;;;;;;4.90;2.85;;;;;;;7.47;89.79;97765.13;1698079;84;21027;-77
2022/10/04 04:53:15;;;;;;;3.47;2.75;;;;;;;7.53;89.58;97767.63;1718216;83;20965;-77
2022/10/04 04:55:48;;;;;;;4.22;3.00;;;;;;;7.59;89.40;97759.58;1720266;82;21034;-77
2022/10/04 04:58:31;;;;;;;5.80;2.58;;;;;;;7.65;89.16;97766.50;1697290;83;21385;-77
2022/10/04 05:01:21;;;;;;;8.88;3.25;;;;;;;7.70;89.05;97772.98;1664304;85;20979;-77
2022/10/04 05:04:11;;;;;;;3.95;2.70;;;;;;;7.73;89.03;97777.73;1664436;83;21078;-77
2022/10/04 05:06:47;;;;;;;5.42;3.10;;;;;;;7.72;89.00;97776.00;1692055;83;21004;-77
2022/10/04 05:09:35;;;;;;;3.80;2.98;;;;;;;7.74;89.09;97778.18;1680687;83;21450;-77
2022/10/04 05:12:15;;;;;;;6.35;3.35;;;;;;;7.75;89.00;97782.55;1638458;85;21031;-78
2022/10/04 05:14:53;;;;;;;6.10;3.42;;;;;;;7.75;89.35;97781.23;1684649;84;21016;-77
2022/10/04 05:17:23;;;;;;;9.30;3.67;;;;;;;7.78;89.30;97785.56;1692362;83;20984;-76
2022/10/04 05:19:54;;;;;;;6.37;3.72;;;;;;;7.81;89.28;97789.91;1684786;84;21008;-76
2022/10/04 05:22:25;;;;;;;5.10;3.42;;;;;;;7.82;89.47;97792.95;1692505;83;20953;-76
2022/10/04 05:24:57;;;;;;;5.12;3.45;;;;;;;7.86;89.31;97795.95;1667963;85;21048;-76
2022/10/04 05:27:33;;;;;;;4.35;3.58;;;;;;;7.90;89.11;97804.22;1719483;83;21009;-76
2022/10/04 05:30:14;;;;;;;5.45;3.77;;;;;;;7.97;89.30;97805.81;1668714;84;21003;-76
2022/10/04 05:32:52;;;;;;;5.70;3.80;;;;;;;8.03;89.27;97812.73;1707735;83;21530;-76
2022/10/04 05:35:23;;;;;;;7.17;3.55;;;;;;;8.09;89.46;97808.63;1682899;82;21011;-76
2022/10/04 05:38:15;;;;;;;7.92;3.37;;;;;;;8.22;89.59;97813.17;1712588;83;20970;-76
2022/10/04 05:40:51;;;;;;;5.83;2.80;;;;;;;8.37;89.78;97808.44;1658619;84;21034;-76
2022/10/04 05:43:36;;;;;;;3.20;2.47;;;;;;;8.61;89.70;97812.31;1707218;83;20973;-77
2022/10/04 05:46:20;;;;;;;4.53;2.55;;;;;;;8.83;88.94;97813.96;1706141;83;20974;-76
2022/10/04 05:48:54;;;;;;;3.10;2.80;;;;;;;9.01;88.82;97820.14;1684919;84;21000;-76
2022/10/04 05:51:31;;;;;;;5.25;2.87;;;;;;;9.23;88.50;97808.06;1718355;83;21033;-77
2022/10/04 05:54:04;;;;;;;7.05;2.80;;;;;;;9.23;88.50;97808.06;1657323;85;21004;-76
2022/10/04 05:56:54;;;;;;;5.00;3.20;;;;;;;9.37;87.95;97818.28;1697880;82;20980;-77
2022/10/04 05:59:47;;;;;;;5.75;2.85;;;;;;;9.51;88.39;97823.66;1652716;85;21019;-77
2022/10/04 06:02:49;;;;;;;5.53;2.87;;;;;;;9.63;88.28;97823.28;1671091;84;21068;-76
2022/10/04 06:05:31;;;;;;;6.95;3.08;;;;;;;9.72;87.96;97824.79;1700798;83;21031;-76
2022/10/04 06:08:07;;;;;;;5.17;2.80;;;;;;;9.71;86.13;97824.39;1742053;81;20988;-76
2022/10/04 06:11:08;;;;;;;5.47;3.33;;;;;;;9.68;85.93;97831.55;1742613;81;21017;-76
2022/10/04 06:14:21;;;;;;;6.05;3.20;;;;;;;9.66;86.26;97827.63;1719589;82;20989;-76
2022/10/04 06:17:13;;;;;;;4.70;3.22;;;;;;;9.63;86.22;97820.64;1718908;83;20978;-76
2022/10/04 06:20:06;;;;;;;5.90;4.17;;;;;;;9.63;86.17;97830.34;1715819;83;21478;-77
2022/10/04 06:22:33;;;;;;;8.40;3.20;;;;;;;9.58;86.25;97827.84;1727863;81;21464;-76
2022/10/04 06:25:08;;;;;;;5.60;3.72;;;;;;;9.57;86.47;97846.40;1726505;81;20988;-76
2022/10/04 06:28:12;;;;;;;9.13;3.98;;;;;;;9.56;86.53;97838.05;1722398;83;21407;-74
2022/10/04 06:31:24;;;;;;;9.13;3.92;;;;;;;9.58;86.64;97839.75;1723106;81;21064;-76
2022/10/04 06:34:17;;;;;;;6.78;3.92;;;;;;;9.61;86.49;97844.97;1738367;81;21369;-76
2022/10/04 06:37:26;;;;;;;5.30;4.08;;;;;;;9.70;86.25;97846.92;1735756;81;21009;-76
2022/10/04 06:40:46;;;;;;;7.22;3.85;;;;;;;9.78;85.97;97851.55;1719975;81;21021;-77
2022/10/04 06:43:46;;;;;;;8.05;3.12;;;;;;;9.94;85.47;97859.91;1700637;84;21049;-76
2022/10/04 06:46:27;;;;;;;6.67;2.95;;;;;;;10.08;84.51;97855.53;1726808;81;20956;-77
2022/10/04 06:49:37;;;;;;;5.78;3.55;;;;;;;10.25;84.83;97856.34;1715833;83;20988;-76
2022/10/04 06:52:15;;;;;;;4.30;2.47;;;;;;;10.43;84.50;97865.98;1717705;83;20972;-77
2022/10/04 06:55:13;;;;;;;3.75;2.50;;;;;;;10.64;82.53;97867.13;1712934;81;21015;-76
2022/10/04 06:58:12;;;;;;;3.25;2.20;;;;;;;10.75;81.37;97865.42;1675312;83;22179;-76
2022/10/04 07:01:00;;;;;;;6.70;3.35;;;;;;;10.90;81.32;97867.17;1719750;82;21524;-76
2022/10/04 07:03:47;;;;;;;5.05;3.50;;;;;;;10.99;79.57;97865.98;1716843;83;21382;-77
2022/10/04 07:06:18;;;;;;;3.30;2.50;;;;;;;11.04;78.02;97874.69;1699380;83;20992;-77
2022/10/04 07:08:51;;;;;;;3.17;2.50;;;;;;;11.08;77.88;97884.25;1715369;83;21032;-77
2022/10/04 07:11:58;;;;;;;4.05;2.47;;;;;;;11.10;77.47;97878.45;1692781;84;20996;-76
2022/10/04 07:14:36;;;;;;;2.83;2.10;;;;;;;11.10;77.00;97881.10;1668021;84;21036;-76
2022/10/04 07:17:11;;;;;;;3.17;2.40;;;;;;;11.11;75.91;97889.91;1705999;83;21048;-76
2022/10/04 07:19:50;;;;;;;3.15;2.30;;;;;;;11.08;76.53;97896.18;1712088;83;21096;-76
2022/10/04 07:22:37;;;;;;;3.02;2.00;;;;;;;11.06;75.45;97902.01;1658592;85;21056;-77
2022/10/04 07:25:26;;;;;;;3.72;1.47;;;;;;;10.99;74.49;97905.77;1730918;82;21426;-76
2022/10/04 07:31:26;;;;;;;1.92;1.50;;;;;;;10.81;73.52;97912.94;1684038;84;21416;-75
2022/10/04 07:34:16;;;;;;;2.42;1.55;;;;;;;10.76;73.13;97918.00;1695723;84;20992;-75
2022/10/04 07:36:51;;;;;;;3.08;1.70;;;;;;;10.73;73.32;97918.95;1681464;84;20965;-75
2022/10/04 07:39:35;;;;;;;5.72;1.70;;;;;;;10.72;73.67;97924.30;1709811;84;21378;-75
2022/10/04 07:42:21;;;;;;;2.20;1.37;;;;;;;10.73;73.58;97924.27;1695213;84;21021;-75
2022/10/04 07:45:05;;;;;;;1.92;1.30;;;;;;;10.76;73.12;97918.00;1707745;84;21043;-75
2022/10/04 07:47:32;;;;;;;2.02;1.25;;;;;;;10.77;73.11;97925.03;1711987;84;21037;-75
2022/10/04 07:49:59;;;;;;;2.72;1.57;;;;;;;10.78;73.39;97926.31;1707903;84;21012;-75
2022/10/04 07:52:55;;;;;;;1.45;1.27;;;;;;;10.78;73.09;97926.75;1700740;84;21474;-76
2022/10/04 07:55:31;;;;;;;2.75;1.90;;;;;;;10.75;72.93;97929.05;1687172;84;21023;-76
2022/10/04 07:58:24;;;;;;;3.20;2.05;;;;;;;10.73;73.20;97931.33;1653678;85;21026;-77
2022/10/04 08:01:01;;;;;;;2.05;1.62;;;;;;;10.74;73.62;97925.11;1704537;83;21406;-77
2022/10/04 08:04:05;;;;;;;1.95;1.72;;;;;;;10.79;73.71;97930.69;1710668;83;20988;-77
2022/10/04 08:06:43;;;;;;;4.35;2.05;;;;;;;10.86;75.01;97923.41;1712514;82;20988;-82
2022/10/04 08:09:30;;;;;;;2.10;1.20;;;;;;;10.94;75.55;97920.52;1712859;83;21037;-82
2022/10/04 08:12:20;;;;;;;2.70;1.50;;;;;;;11.05;74.88;97930.30;1720600;83;20992;-77
2022/10/04 08:15:12;;;;;;;3.17;1.62;;;;;;;11.14;74.11;97934.46;1718085;82;21422;-77
2022/10/04 08:18:08;;;;;;;2.10;1.40;;;;;;;11.20;73.73;97933.37;1726661;81;20964;-77
2022/10/04 08:20:56;;;;;;;1.90;1.40;;;;;;;11.33;73.93;97937.80;1740762;81;21301;-77
2022/10/04 08:23:34;;;;;;;2.17;1.50;;;;;;;11.45;73.77;97939.17;1701657;83;21007;-77
2022/10/04 08:26:36;;;;;;;1.52;1.40;;;;;;;11.56;72.50;97935.72;1665367;84;20994;-77
2022/10/04 08:29:41;;;;;;;3.55;1.60;;;;;;;11.62;71.72;97939.92;1659560;84;21012;-77
2022/10/04 08:32:25;;;;;;;1.52;1.10;;;;;;;11.66;72.26;97932.74;1695009;83;20972;-77
2022/10/04 08:35:04;;;;;;;3.25;1.20;;;;;;;11.71;70.05;97946.24;1672720;84;21010;-77
2022/10/04 08:38:20;;;;;;;2.50;1.40;;;;;;;11.64;68.90;97943.41;1739185;81;21003;-77
2022/10/04 08:41:13;;;;;;;1.50;1.12;;;;;;;11.65;70.65;97934.97;1734495;81;20988;-77
2022/10/04 08:44:07;;;;;;;1.65;1.20;;;;;;;11.69;68.57;97944.11;1723923;81;21020;-77
2022/10/04 08:47:21;;;;;;;2.45;1.40;;;;;;;11.71;69.44;97942.73;1728924;81;20988;-77
2022/10/04 08:50:37;;;;;;;1.35;1.12;;;;;;;11.73;69.46;97949.73;1727377;81;21413;-77
2022/10/04 08:53:53;;;;;;;2.05;1.10;;;;;;;11.74;68.87;97958.55;1726394;81;20987;-77
2022/10/04 08:56:59;;;;;;;2.45;0.70;;;;;;;11.74;69.46;97957.21;1698297;83;20975;-77
2022/10/04 08:59:53;;;;;;;2.08;0.88;;;;;;;11.86;66.31;97958.57;1691348;83;20975;-77
2022/10/04 09:02:37;;;;;;;2.87;0.80;;;;;;;11.98;67.46;97968.77;1689528;83;20981;-77
2022/10/04 09:05:31;;;;;;;;;;;;;;;12.12;67.91;97968.75;1700732;83;21023;-77
2022/10/04 09:08:55;;;;;;;1.10;0.95;;;;;;;12.21;68.81;97976.38;1718689;83;20099;-77
2022/10/04 09:11:58;;;;;;;0.95;0.90;;;;;;;12.33;68.09;97969.75;1697591;83;21117;-77
2022/10/04 09:14:56;;;;;;;1.42;1.00;;;;;;;12.57;68.61;97971.09;1677811;83;21028;-77
2022/10/04 09:17:59;;;;;;;1.45;1.20;;;;;;;12.73;67.30;97974.48;1676188;83;21408;-77
2022/10/04 09:20:45;;;;;;;1.75;1.00;;;;;;;12.76;67.01;97977.03;1686990;84;21036;-77
2022/10/04 09:23:41;;;;;;;2.17;1.10;;;;;;;12.67;66.75;97981.77;1673830;85;21005;-77
2022/10/04 09:26:46;;;;;;;1.05;0.80;;;;;;;12.72;67.54;97974.08;1691657;85;21009;-77
2022/10/04 09:29:30;;;;;;;1.15;0.80;;;;;;;12.83;65.23;97989.15;1662949;85;21490;-78
2022/10/04 09:32:48;;;;;;;1.20;0.80;;;;;;;12.77;65.43;97976.98;1669664;84;21013;-78
2022/10/04 09:35:51;;;;;;;1.17;0.80;;;;;;;12.85;64.81;97982.00;1660272;86;21022;-78
2022/10/04 09:38:48;;;;;;;1.32;0.80;;;;;;;12.78;63.14;97993.78;1624715;87;21422;-78
2022/10/04 09:41:33;;;;;;;1.00;0.82;;;;;;;12.78;64.28;97984.47;1680252;84;21028;-77
2022/10/04 09:44:20;;;;;;;1.40;0.98;;;;;;;12.82;64.34;97989.23;1681554;85;21422;-77
2022/10/04 09:47:18;;;;;;;2.15;1.67;;;;;;;12.85;64.02;97991.75;1680901;85;20999;-78
2022/10/04 09:50:06;;;;;;;1.55;0.90;;;;;;;12.90;64.64;97993.77;1680865;84;20992;-77
2022/10/04 09:53:07;;;;;;;1.57;1.00;;;;;;;12.97;64.39;97986.42;1654567;85;20996;-78
2022/10/04 09:56:03;;;;;;;1.35;1.00;;;;;;;12.92;64.50;97983.47;1681422;85;21037;-78
2022/10/04 09:59:17;;;;;;;0.80;0.80;;;;;;;12.94;64.77;97995.39;1681447;85;21008;-78
2022/10/04 10:02:27;;;;;;;1.57;1.00;;;;;;;12.92;63.92;97999.91;1681126;85;21063;-78
2022/10/04 10:05:32;;;;;;;1.15;0.90;;;;;;;12.93;64.83;97997.66;1681435;84;21043;-78
2022/10/04 10:08:16;;;;;;;0.93;0.90;;;;;;;13.00;64.97;97996.47;1664407;85;21048;-78
2022/10/04 10:15:03;;;;;;;2.12;1.00;;;;;;;12.96;64.42;97988.23;1682036;85;21735;-77
2022/10/04 10:18:01;;;;;;;1.82;1.25;;;;;;;13.13;65.11;97984.02;1686147;85;21419;-78
2022/10/04 10:20:53;;;;;;;2.55;1.20;;;;;;;13.42;64.36;97978.82;1685993;85;21020;-77
2022/10/04 10:23:49;;;;;;;2.67;0.98;;;;;;;13.48;65.01;97976.41;1686102;85;21005;-77
2022/10/04 10:27:01;;;;;;;3.52;1.02;;;;;;;13.59;65.31;97984.81;1686075;85;21041;-77
2022/10/04 10:30:09;;;;;;;1.10;0.88;;;;;;;13.83;65.43;97979.86;1656223;87;21009;-78
2022/10/04 10:33:07;;;;;;;2.98;1.15;;;;;;;13.95;63.64;97983.30;1666811;85;21649;-78
2022/10/04 10:36:15;;;;;;;1.30;1.00;;;;;;;13.81;63.81;97980.37;1647846;85;20988;-77
2022/10/04 10:39:10;;;;;;;1.95;1.20;;;;;;;13.72;64.06;97985.63;1670235;85;21000;-77
2022/10/04 10:41:45;;;;;;;2.58;1.30;;;;;;;13.58;63.30;97985.74;1657082;85;21437;-77
2022/10/04 10:44:33;;;;;;;3.22;0.88;;;;;;;13.48;62.91;97981.73;1663577;85;21063;-77
2022/10/04 10:47:27;;;;;;;1.42;1.07;;;;;;;13.44;62.77;97986.75;1697438;84;20940;-77
2022/10/04 10:50:17;;;;;;;2.45;1.10;;;;;;;13.61;63.33;97986.08;1656713;85;21013;-77
2022/10/04 10:53:06;;;;;;;1.70;1.12;;;;;;;13.61;62.58;97991.89;1669575;84;21038;-77
2022/10/04 10:56:07;;;;;;;1.42;1.00;;;;;;;13.64;64.12;97983.30;1667329;86;21469;-77
2022/10/04 10:58:47;;;;;;;1.85;1.10;;;;;;;13.75;64.70;97985.52;1677930;84;21015;-77
2022/10/04 11:01:37;;;;;;;1.87;1.05;;;;;;;13.88;63.69;97983.19;1668336;86;21469;-77
2022/10/04 11:04:21;;;;;;;1.80;1.05;;;;;;;14.23;63.66;97979.42;1692760;83;20986;-77
2022/10/04 11:07:44;;;;;;;1.77;1.00;;;;;;;14.59;62.31;97976.95;1653515;86;21073;-77
2022/10/04 11:10:45;;;;;;;2.50;1.10;;;;;;;14.71;61.75;97979.52;1691621;85;21057;-77
2022/10/04 11:13:44;;;;;;;13.00;8.85;;;;;;;14.63;59.23;97987.88;1649605;87;21178;-77
2022/10/04 11:16:50;;;;;;;4.25;1.55;;;;;;;14.50;60.89;97987.09;1675238;85;21050;-77
2022/10/04 11:19:43;;;;;;;1.32;0.90;;;;;;;14.41;61.50;97982.66;1668853;86;21018;-77
2022/10/04 11:22:33;;;;;;;2.50;1.20;;;;;;;14.26;61.33;97985.09;1669511;86;21091;-77
2022/10/04 11:25:33;;;;;;;1.95;1.17;;;;;;;14.19;61.17;97990.27;1639154;87;20998;-77
2022/10/04 11:28:08;;;;;;;1.72;1.00;;;;;;;14.05;61.63;97984.23;1666288;83;21005;-77
2022/10/04 11:31:00;;;;;;;1.00;0.65;;;;;;;13.94;61.40;97990.91;1652673;86;21016;-77
2022/10/04 11:33:59;;;;;;;1.05;0.90;;;;;;;13.81;60.78;97990.57;1659687;85;21035;-76
2022/10/04 11:36:59;;;;;;;1.95;1.17;;;;;;;13.58;61.08;98003.05;1669688;84;21018;-77
2022/10/04 11:39:40;;;;;;;1.45;0.80;;;;;;;13.39;60.90;97996.73;1669594;86;21018;-77
2022/10/04 11:42:22;;;;;;;1.45;0.82;;;;;;;13.30;62.04;97993.98;1681496;85;21076;-77
2022/10/04 11:45:46;;;;;;;2.08;0.82;;;;;;;13.26;61.78;97995.03;1686169;83;21120;-76
2022/10/04 11:48:24;;;;;;;1.07;0.85;;;;;;;13.06;61.65;98006.89;1677822;83;21027;-77
2022/10/04 11:51:05;;;;;;;1.45;1.00;;;;;;;12.79;62.30;98010.17;1697394;83;20976;-76
2022/10/04 11:53:51;;;;;;;1.62;0.98;;;;;;;12.58;64.86;98015.83;1691905;83;21086;-79
2022/10/04 11:56:56;;;;;;;1.50;1.22;;;;;;;12.35;66.80;98022.41;1684642;83;21042;-77
2022/10/04 11:59:43;;;;;;;;;;;;;;;12.08;68.17;98025.59;1672003;83;21046;-77
2022/10/04 12:02:35;;;;;;;1.57;0.90;;;;;;;11.80;69.95;98021.19;1628967;88;20351;-77
2022/10/04 12:05:27;;;;;;;1.72;0.93;;;;;;;11.66;70.67;98030.97;1661733;83;21001;-77
2022/10/04 12:08:21;;;;;;;1.47;1.00;;;;;;;11.54;71.11;98030.91;1664007;86;20985;-77
2022/10/04 12:11:11;;;;;;;1.20;0.98;;;;;;;11.48;71.52;98034.17;1666580;85;21465;-77
2022/10/04 12:13:52;;;;;;;1.77;1.20;;;;;;;11.44;71.77;98031.20;1644265;86;21049;-77
2022/10/04 12:16:51;;;;;;;1.72;1.12;;;;;;;11.38;71.67;98031.38;1688772;83;20994;-78
2022/10/04 12:19:56;;;;;;;2.80;1.50;;;;;;;11.42;72.52;98030.38;1669522;83;21061;-78
2022/10/04 12:22:55;;;;;;;2.08;1.42;;;;;;;11.52;72.65;98032.73;1690103;84;21533;-78
2022/10/04 12:26:09;;;;;;;2.60;1.55;;;;;;;11.58;73.59;98037.38;1691890;85;21013;-78
2022/10/04 12:28:56;;;;;;;1.80;1.50;;;;;;;11.68;74.47;98037.95;1691641;85;21012;-77
2022/10/04 12:31:36;;;;;;;2.62;1.55;;;;;;;11.82;73.81;98034.83;1682835;85;20972;-77
2022/10/04 12:34:42;;;;;;;2.83;1.30;;;;;;;11.96;73.35;98037.00;1679602;84;21393;-77
2022/10/04 12:37:37;;;;;;;4.33;1.10;;;;;;;12.07;73.19;98040.65;1666261;85;21010;-77
2022/10/04 12:40:12;;;;;;;3.22;1.92;;;;;;;12.18;72.47;98042.05;1689217;84;21006;-77
2022/10/04 12:43:09;;;;;;;1.42;1.17;;;;;;;12.26;72.19;98041.33;1636587;86;21090;-77
2022/10/04 12:46:10;;;;;;;1.70;1.52;;;;;;;12.32;72.11;98040.22;1668703;85;21028;-77
2022/10/04 12:49:10;;;;;;;2.15;1.35;;;;;;;12.38;71.96;98036.04;1642715;85;21494;-77
2022/10/04 12:52:00;;;;;;;2.25;1.20;;;;;;;12.36;70.46;98038.75;1653940;85;21081;-78
2022/10/04 12:54:38;;;;;;;1.40;1.20;;;;;;;12.37;70.64;98036.97;1678630;85;21494;-77
2022/10/04 12:57:48;;;;;;;1.55;1.20;;;;;;;12.36;70.54;98041.86;1659682;85;21028;-77
2022/10/04 13:00:19;;;;;;;1.95;1.10;;;;;;;12.41;69.89;98046.54;1687374;85;21489;-78
2022/10/04 13:03:26;;;;;;;1.65;1.10;;;;;;;12.47;69.23;98043.68;1674047;85;21438;-78
2022/10/04 13:06:01;;;;;;;1.45;1.00;;;;;;;12.48;69.45;98041.42;1656620;85;20993;-78
2022/10/04 13:08:47;;;;;;;4.72;1.10;;;;;;;12.60;68.98;98042.77;1685677;85;21048;-78
2022/10/04 13:11:38;;;;;;;3.15;1.12;;;;;;;12.63;68.36;98037.80;1651798;86;21013;-79
2022/10/04 13:14:48;;;;;;;3.20;1.10;;;;;;;12.68;68.66;98044.66;1642822;86;21012;-79
2022/10/04 13:17:43;;;;;;;1.25;1.00;;;;;;;12.74;68.45;98058.67;1642722;86;21096;-78
2022/10/04 13:20:56;;;;;;;2.00;1.10;;;;;;;12.77;68.55;98062.08;1631640;86;21433;-78